Time;durP1;ratioP1;P1;durP2;ratioP2;P2;SDS_P1;SDS_P2;PMS_P1;PMS_P2;Temp;Humidity;BMP_temperature;BMP_pressure;BME280_temperature;BME280_humidity;BME280_pressure;Samples;Min_cycle;Max_cycle;Signal;HPM_P1;HPM_P2
2024/01/26 00:01:53;;;;;;;3.30;3.00;;;16.00;57.90;;;;;;5054916;28;20257;-69
2024/01/26 00:04:19;;;;;;;3.85;3.20;;;15.90;57.90;;;;;;5054638;28;20172;-71
2024/01/26 00:06:44;;;;;;;3.83;2.95;;;15.80;57.90;;;;;;5053505;28;20643;-71
2024/01/26 00:09:13;;;;;;;3.50;3.20;;;15.90;57.90;;;;;;5054723;28;20801;-72
2024/01/26 00:11:42;;;;;;;3.95;3.25;;;15.90;58.00;;;;;;5054408;28;20171;-70
2024/01/26 00:14:10;;;;;;;3.25;2.92;;;15.90;58.00;;;;;;5054194;28;20219;-71
2024/01/26 00:16:36;;;;;;;3.78;3.00;;;15.90;58.00;;;;;;5054419;28;20179;-69
2024/01/26 00:19:01;;;;;;;4.03;3.05;;;15.90;58.00;;;;;;5054561;28;20644;-70
2024/01/26 00:21:27;;;;;;;4.90;3.67;;;15.90;58.00;;;;;;5051982;28;20207;-69
2024/01/26 00:23:52;;;;;;;3.42;3.13;;;15.80;58.00;;;;;;5054563;28;20192;-69
2024/01/26 00:26:18;;;;;;;3.60;3.30;;;15.80;58.00;;;;;;5054004;28;20638;-69
2024/01/26 00:28:43;;;;;;;3.33;3.03;;;15.90;58.10;;;;;;5053731;28;20183;-69
2024/01/26 00:31:15;;;;;;;3.22;2.92;;;15.90;58.00;;;;;;5054362;28;20171;-69
2024/01/26 00:33:40;;;;;;;3.75;3.45;;;15.90;58.10;;;;;;5054179;28;20182;-69
2024/01/26 00:36:06;;;;;;;3.38;2.75;;;15.90;58.10;;;;;;5053426;28;20169;-69
2024/01/26 00:38:31;;;;;;;3.45;3.15;;;15.80;58.10;;;;;;5054067;28;20175;-70
2024/01/26 00:40:57;;;;;;;3.38;3.08;;;15.90;58.10;;;;;;5054379;28;20174;-69
2024/01/26 00:43:22;;;;;;;3.67;3.30;;;15.80;58.00;;;;;;5053323;28;20211;-70
2024/01/26 00:45:49;;;;;;;3.72;3.35;;;15.80;58.10;;;;;;5054213;28;20191;-69
2024/01/26 00:48:14;;;;;;;3.28;2.97;;;15.80;58.10;;;;;;5054153;28;20604;-69
2024/01/26 00:50:40;;;;;;;3.05;2.80;;;15.80;58.00;;;;;;5053047;28;20680;-69
2024/01/26 00:53:06;;;;;;;3.45;3.15;;;15.80;58.10;;;;;;5054120;28;20198;-69
2024/01/26 00:55:31;;;;;;;4.00;3.30;;;15.80;58.10;;;;;;5052728;28;20713;-69
2024/01/26 00:57:57;;;;;;;3.90;3.53;;;15.80;58.10;;;;;;5053966;28;20582;-70
2024/01/26 01:00:24;;;;;;;5.22;2.88;;;15.80;58.10;;;;;;5053355;28;20639;-70
2024/01/26 01:02:50;;;;;;;3.80;3.20;;;15.80;58.10;;;;;;5051755;28;20628;-70
2024/01/26 01:05:16;;;;;;;4.25;3.20;;;15.80;58.10;;;;;;5053413;28;20202;-71
2024/01/26 01:07:41;;;;;;;3.10;2.90;;;15.70;58.10;;;;;;5053806;28;20635;-70
2024/01/26 01:10:08;;;;;;;3.38;3.08;;;15.80;58.20;;;;;;5053118;28;20179;-70
2024/01/26 01:12:33;;;;;;;3.60;3.30;;;15.80;58.10;;;;;;5053261;28;20179;-71
2024/01/26 01:14:58;;;;;;;2.95;2.75;;;15.80;58.10;;;;;;5053596;28;20177;-71
2024/01/26 01:17:25;;;;;;;3.10;2.90;;;15.70;58.10;;;;;;5051514;28;20178;-70
2024/01/26 01:19:50;;;;;;;3.38;2.65;;;15.70;58.10;;;;;;5053337;28;20259;-68
2024/01/26 01:22:16;;;;;;;3.45;3.15;;;15.70;58.10;;;;;;5053166;28;20361;-69
2024/01/26 01:24:42;;;;;;;3.58;3.15;;;15.70;58.10;;;;;;5052735;28;20175;-69
2024/01/26 01:27:08;;;;;;;3.63;3.33;;;15.70;58.20;;;;;;5053348;28;20178;-69
2024/01/26 01:29:34;;;;;;;3.53;3.22;;;15.70;58.20;;;;;;5053014;28;20178;-68
2024/01/26 01:31:59;;;;;;;5.65;3.17;;;15.70;58.10;;;;;;5052590;28;20198;-69
2024/01/26 01:34:25;;;;;;;3.33;2.88;;;15.70;58.20;;;;;;5052903;28;20532;-69
2024/01/26 01:36:51;;;;;;;3.33;3.03;;;15.70;58.20;;;;;;5053117;28;20664;-69
2024/01/26 01:39:16;;;;;;;3.47;3.20;;;15.70;58.20;;;;;;5052086;28;20179;-70
2024/01/26 01:41:46;;;;;;;3.80;3.42;;;15.70;58.20;;;;;;5053044;28;20202;-70
2024/01/26 01:44:12;;;;;;;3.15;2.95;;;15.70;58.20;;;;;;5053118;28;20179;-69
2024/01/26 01:46:37;;;;;;;3.00;2.80;;;15.70;58.20;;;;;;5051881;28;20590;-69
2024/01/26 01:49:03;;;;;;;3.38;3.08;;;15.70;58.20;;;;;;5052813;28;20629;-69
2024/01/26 01:51:29;;;;;;;3.35;3.05;;;15.70;58.20;;;;;;5051510;28;20183;-69
2024/01/26 01:53:54;;;;;;;3.05;2.85;;;15.60;58.20;;;;;;5050979;28;20704;-69
2024/01/26 01:56:20;;;;;;;3.70;3.40;;;15.60;58.20;;;;;;5051305;28;20175;-70
2024/01/26 01:58:45;;;;;;;3.13;2.83;;;15.70;58.20;;;;;;5050707;28;20174;-69
2024/01/26 02:01:11;;;;;;;2.80;2.60;;;15.70;58.30;;;;;;5051469;28;20179;-71
2024/01/26 02:03:36;;;;;;;3.22;2.92;;;15.60;58.20;;;;;;5052249;28;20183;-69
2024/01/26 02:06:02;;;;;;;3.55;2.78;;;15.60;58.20;;;;;;5052095;28;20576;-70
2024/01/26 02:08:28;;;;;;;3.10;2.90;;;15.60;58.20;;;;;;5052487;28;20186;-71
2024/01/26 02:10:53;;;;;;;3.40;3.15;;;15.60;58.20;;;;;;5052654;28;20540;-71
2024/01/26 02:13:19;;;;;;;2.75;2.55;;;15.60;58.20;;;;;;5051408;28;20646;-72
2024/01/26 02:15:45;;;;;;;3.10;2.88;;;15.60;58.20;;;;;;5052483;28;20175;-69
2024/01/26 02:18:10;;;;;;;3.20;2.85;;;15.60;58.30;;;;;;5052367;28;20225;-70
2024/01/26 02:20:36;;;;;;;3.03;2.83;;;15.60;58.30;;;;;;5051562;28;20182;-70
2024/01/26 02:23:01;;;;;;;3.47;3.17;;;15.60;58.30;;;;;;5052471;28;20207;-71
2024/01/26 02:25:27;;;;;;;3.15;2.85;;;15.60;58.20;;;;;;5052113;28;20186;-69
2024/01/26 02:27:52;;;;;;;3.17;2.85;;;15.60;58.20;;;;;;5051553;28;20504;-69
2024/01/26 02:30:18;;;;;;;3.42;2.85;;;15.60;58.20;;;;;;5051539;28;20626;-69
2024/01/26 02:32:43;;;;;;;3.17;2.90;;;15.60;58.30;;;;;;5052113;28;20178;-68
2024/01/26 02:35:10;;;;;;;3.58;3.28;;;15.60;58.20;;;;;;5051597;28;20250;-70
2024/01/26 02:37:35;;;;;;;2.75;2.55;;;15.60;58.20;;;;;;5051931;28;20175;-69
2024/01/26 02:40:01;;;;;;;2.85;2.65;;;15.50;58.20;;;;;;5051946;28;20212;-69
2024/01/26 02:42:26;;;;;;;4.25;3.25;;;15.60;58.30;;;;;;5051130;28;20249;-69
2024/01/26 02:44:52;;;;;;;2.58;2.38;;;15.60;58.30;;;;;;5052033;28;20209;-69
2024/01/26 02:47:18;;;;;;;2.70;2.50;;;15.60;58.40;;;;;;5051605;28;20206;-70
2024/01/26 02:49:43;;;;;;;2.92;2.70;;;15.60;58.30;;;;;;5051226;28;20198;-69
2024/01/26 02:52:09;;;;;;;2.75;2.55;;;15.50;58.30;;;;;;5052161;28;20265;-69
2024/01/26 02:54:34;;;;;;;2.60;2.40;;;15.60;58.40;;;;;;5051542;28;20230;-69
2024/01/26 02:57:00;;;;;;;2.92;2.72;;;15.50;58.30;;;;;;5051277;28;20182;-70
2024/01/26 02:59:25;;;;;;;2.78;2.58;;;15.50;58.30;;;;;;5051610;28;20171;-70
2024/01/26 03:01:51;;;;;;;2.60;2.40;;;15.50;58.30;;;;;;5051789;28;20210;-69
2024/01/26 03:04:18;;;;;;;3.17;2.67;;;15.50;58.30;;;;;;5050847;28;20171;-71
2024/01/26 03:06:45;;;;;;;2.58;2.38;;;15.50;58.30;;;;;;5052138;28;20183;-71
2024/01/26 03:09:10;;;;;;;2.70;2.50;;;15.50;58.40;;;;;;5051198;28;20228;-71
2024/01/26 03:11:42;;;;;;;2.33;2.20;;;15.50;58.40;;;;;;5051552;28;20179;-70
2024/01/26 03:14:08;;;;;;;2.75;2.45;;;15.50;58.40;;;;;;5051763;28;20210;-69
2024/01/26 03:16:34;;;;;;;2.80;2.50;;;15.50;58.40;;;;;;5050536;28;20237;-70
2024/01/26 03:18:59;;;;;;;3.17;2.50;;;15.50;58.40;;;;;;5051794;28;20175;-69
2024/01/26 03:21:25;;;;;;;2.92;2.72;;;15.50;58.40;;;;;;5051468;28;20708;-70
2024/01/26 03:23:51;;;;;;;2.70;2.53;;;15.50;58.40;;;;;;5051104;28;20190;-69
2024/01/26 03:26:17;;;;;;;2.60;2.40;;;15.50;58.40;;;;;;5051371;28;20175;-69
2024/01/26 03:28:42;;;;;;;3.03;2.72;;;15.50;58.40;;;;;;5051708;28;20179;-69
2024/01/26 03:31:08;;;;;;;2.10;2.00;;;15.50;58.40;;;;;;5050856;28;20608;-70
2024/01/26 03:33:33;;;;;;;3.15;2.60;;;15.50;58.50;;;;;;5051470;28;20174;-69
2024/01/26 03:35:59;;;;;;;2.58;2.38;;;15.50;58.50;;;;;;5051712;28;20167;-69
2024/01/26 03:38:24;;;;;;;2.50;2.30;;;15.50;58.50;;;;;;5050639;28;20182;-70
2024/01/26 03:40:50;;;;;;;2.70;2.50;;;15.50;58.50;;;;;;5052389;28;20171;-70
2024/01/26 03:43:15;;;;;;;3.38;2.35;;;15.40;58.40;;;;;;5055089;28;20673;-70
2024/01/26 03:45:41;;;;;;;2.80;2.60;;;15.50;58.50;;;;;;5054396;28;20183;-69
2024/01/26 03:48:07;;;;;;;2.08;1.98;;;15.50;58.50;;;;;;5055328;28;20297;-69
2024/01/26 03:50:33;;;;;;;2.50;2.20;;;15.40;58.40;;;;;;5055083;28;20697;-69
2024/01/26 03:52:59;;;;;;;2.75;2.35;;;15.50;58.50;;;;;;5054582;28;20206;-69
2024/01/26 03:55:24;;;;;;;2.53;2.30;;;15.50;58.50;;;;;;5054660;28;20356;-69
2024/01/26 03:57:50;;;;;;;2.25;2.05;;;15.40;58.50;;;;;;5055047;28;20258;-69
2024/01/26 04:00:16;;;;;;;2.88;2.67;;;15.40;58.50;;;;;;5054117;28;20289;-69
2024/01/26 04:02:41;;;;;;;2.05;1.95;;;15.40;58.50;;;;;;5055013;28;20211;-70
2024/01/26 04:05:08;;;;;;;2.70;2.50;;;15.40;58.50;;;;;;5055025;28;20186;-70
2024/01/26 04:07:34;;;;;;;2.28;2.17;;;15.40;58.50;;;;;;5053870;28;20184;-70
2024/01/26 04:10:00;;;;;;;2.25;2.10;;;15.40;58.60;;;;;;5054963;28;20175;-70
2024/01/26 04:12:25;;;;;;;2.50;2.30;;;15.40;58.60;;;;;;5053880;28;20171;-70
2024/01/26 04:14:51;;;;;;;2.38;2.00;;;15.40;58.60;;;;;;5054639;28;20171;-70
2024/01/26 04:17:16;;;;;;;2.15;1.98;;;15.40;58.60;;;;;;5054705;28;20230;-70
2024/01/26 04:19:42;;;;;;;2.28;2.03;;;15.40;58.60;;;;;;5053987;28;20660;-70
2024/01/26 04:22:08;;;;;;;2.35;2.03;;;15.40;58.70;;;;;;5054421;28;20210;-69
2024/01/26 04:24:36;;;;;;;2.10;1.90;;;15.40;58.70;;;;;;5053994;28;20175;-69
2024/01/26 04:27:01;;;;;;;1.90;1.80;;;15.30;58.70;;;;;;5053737;28;20540;-69
2024/01/26 04:29:27;;;;;;;2.50;1.80;;;15.40;58.70;;;;;;5054062;28;20186;-69
2024/01/26 04:31:53;;;;;;;3.10;2.25;;;15.40;58.70;;;;;;5054509;28;20252;-68
2024/01/26 04:34:19;;;;;;;2.13;1.50;;;15.40;58.70;;;;;;5053418;28;20175;-68
2024/01/26 04:36:46;;;;;;;2.10;1.90;;;15.40;58.70;;;;;;5054386;28;20179;-69
2024/01/26 04:39:12;;;;;;;2.10;2.00;;;15.40;58.70;;;;;;5054071;28;20258;-71
2024/01/26 04:41:37;;;;;;;2.00;1.90;;;15.40;58.70;;;;;;5053095;28;20230;-70
2024/01/26 04:44:03;;;;;;;1.80;1.70;;;15.30;58.70;;;;;;5054084;28;20495;-69
2024/01/26 04:46:28;;;;;;;2.40;1.85;;;15.40;58.70;;;;;;5053997;28;20666;-70
2024/01/26 04:48:54;;;;;;;2.10;1.90;;;15.40;58.70;;;;;;5053643;28;20536;-68
2024/01/26 04:51:19;;;;;;;2.35;1.90;;;15.30;58.70;;;;;;5053539;28;20658;-71
2024/01/26 04:53:45;;;;;;;1.90;1.80;;;15.40;58.80;;;;;;5053814;28;20231;-69
2024/01/26 04:56:13;;;;;;;2.13;1.90;;;15.40;58.70;;;;;;5053216;28;20167;-70
2024/01/26 04:58:39;;;;;;;2.20;2.00;;;15.40;58.80;;;;;;5053609;28;20552;-70
2024/01/26 05:01:04;;;;;;;2.42;2.00;;;15.30;58.70;;;;;;5054061;28;20622;-70
2024/01/26 05:03:30;;;;;;;2.00;1.80;;;15.40;58.80;;;;;;5052813;28;20211;-70
2024/01/26 05:05:55;;;;;;;1.77;1.67;;;15.30;58.70;;;;;;5053676;28;20181;-69
2024/01/26 05:08:21;;;;;;;2.45;1.90;;;15.30;58.80;;;;;;5053351;28;20171;-71
2024/01/26 05:10:47;;;;;;;1.65;1.55;;;15.40;58.80;;;;;;5052879;28;20179;-71
2024/01/26 05:13:12;;;;;;;1.98;1.70;;;15.30;58.80;;;;;;5053474;28;20175;-72
2024/01/26 05:15:38;;;;;;;2.20;1.80;;;15.30;58.80;;;;;;5052812;28;20179;-70
2024/01/26 05:18:04;;;;;;;1.60;1.50;;;15.30;58.80;;;;;;5053609;28;20214;-70
2024/01/26 05:20:29;;;;;;;1.77;1.67;;;15.30;58.80;;;;;;5053267;28;20179;-72
2024/01/26 05:22:55;;;;;;;1.90;1.80;;;15.30;58.90;;;;;;5052551;28;20214;-71
2024/01/26 05:25:21;;;;;;;1.70;1.60;;;15.30;58.80;;;;;;5053093;28;20190;-71
2024/01/26 05:27:46;;;;;;;1.98;1.77;;;15.30;58.90;;;;;;5053290;28;20182;-69
2024/01/26 05:30:12;;;;;;;3.53;1.50;;;15.30;58.90;;;;;;5052555;28;20231;-69
2024/01/26 05:32:37;;;;;;;1.70;1.55;;;15.30;58.80;;;;;;5052779;28;20266;-69
2024/01/26 05:35:03;;;;;;;2.22;2.10;;;15.30;58.90;;;;;;5053171;28;20164;-70
2024/01/26 05:37:29;;;;;;;2.50;2.00;;;15.30;58.90;;;;;;5052008;28;20190;-70
2024/01/26 05:39:54;;;;;;;1.80;1.70;;;15.30;58.90;;;;;;5053107;28;20175;-71
2024/01/26 05:42:20;;;;;;;1.70;1.60;;;15.30;58.90;;;;;;5052505;28;20203;-71
2024/01/26 05:44:45;;;;;;;1.50;1.40;;;15.30;58.90;;;;;;5052247;28;20175;-71
2024/01/26 05:47:11;;;;;;;2.45;1.80;;;15.30;58.90;;;;;;5053175;28;20179;-72
2024/01/26 05:49:36;;;;;;;1.60;1.50;;;15.30;58.90;;;;;;5052687;28;20721;-69
2024/01/26 05:52:02;;;;;;;1.75;1.65;;;15.30;58.90;;;;;;5052311;28;20957;-70
2024/01/26 05:54:28;;;;;;;2.17;1.98;;;15.30;58.90;;;;;;5052452;28;20712;-70
2024/01/26 05:56:53;;;;;;;1.60;1.50;;;15.40;59.10;;;;;;5052766;28;20634;-70
2024/01/26 05:59:19;;;;;;;3.13;1.73;;;15.40;58.90;;;;;;5051997;28;20522;-71
2024/01/26 06:01:44;;;;;;;2.20;1.30;;;15.40;58.90;;;;;;5052637;28;20210;-70
2024/01/26 06:04:10;;;;;;;1.75;1.65;;;15.40;58.90;;;;;;5052120;28;20190;-71
2024/01/26 06:06:35;;;;;;;1.60;1.50;;;15.40;59.10;;;;;;5051592;28;20175;-71
2024/01/26 06:09:01;;;;;;;1.65;1.40;;;15.40;58.90;;;;;;5052543;28;20186;-72
2024/01/26 06:11:26;;;;;;;2.00;1.88;;;15.40;58.90;;;;;;5051994;28;20262;-71
2024/01/26 06:13:52;;;;;;;2.25;1.88;;;15.40;58.90;;;;;;5051973;28;20174;-71
2024/01/26 06:16:17;;;;;;;1.77;1.67;;;15.40;58.90;;;;;;5052176;28;20179;-72
2024/01/26 06:18:46;;;;;;;1.75;1.65;;;15.40;58.90;;;;;;5052248;28;20178;-70
2024/01/26 06:21:11;;;;;;;1.58;1.48;;;15.40;58.90;;;;;;5051713;28;20725;-71
2024/01/26 06:23:38;;;;;;;2.58;1.95;;;15.40;58.90;;;;;;5051974;28;20297;-70
2024/01/26 06:26:04;;;;;;;2.00;1.80;;;15.30;58.90;;;;;;5051548;28;20171;-70
2024/01/26 06:28:29;;;;;;;1.52;1.40;;;15.40;58.90;;;;;;5051923;28;20626;-70
2024/01/26 06:30:55;;;;;;;1.80;1.70;;;15.30;58.90;;;;;;5052195;28;20182;-69
2024/01/26 06:33:20;;;;;;;1.83;1.67;;;15.30;58.90;;;;;;5051182;28;20178;-71
2024/01/26 06:35:46;;;;;;;1.80;1.70;;;15.30;58.90;;;;;;5052270;28;20175;-70
2024/01/26 06:38:12;;;;;;;1.60;1.50;;;15.30;58.90;;;;;;5052056;28;20167;-71
2024/01/26 06:40:38;;;;;;;1.73;1.63;;;15.30;59.00;;;;;;5051012;28;20689;-71
2024/01/26 06:43:06;;;;;;;1.92;1.65;;;15.30;59.00;;;;;;5052249;28;20242;-71
2024/01/26 06:45:32;;;;;;;1.70;1.45;;;15.30;59.10;;;;;;5051906;28;20171;-71
2024/01/26 06:47:58;;;;;;;2.28;1.83;;;15.30;59.10;;;;;;5051460;28;20194;-71
2024/01/26 06:50:23;;;;;;;1.95;1.70;;;15.30;59.10;;;;;;5051770;28;20175;-71
2024/01/26 06:52:49;;;;;;;1.50;1.40;;;15.30;60.00;;;;;;5052064;28;20179;-71
2024/01/26 06:55:14;;;;;;;1.65;1.55;;;15.40;59.40;;;;;;5051015;28;20599;-72
2024/01/26 06:57:40;;;;;;;1.80;1.70;;;15.50;59.60;;;;;;5051626;28;20634;-71
2024/01/26 07:00:07;;;;;;;2.22;1.60;;;15.60;59.50;;;;;;5051836;28;20179;-71
2024/01/26 07:02:33;;;;;;;1.40;1.30;;;15.80;59.20;;;;;;5050733;28;20210;-70
2024/01/26 07:04:59;;;;;;;1.38;1.30;;;15.90;58.90;;;;;;5051924;28;20726;-72
2024/01/26 07:07:24;;;;;;;1.63;1.45;;;16.10;58.80;;;;;;5051479;28;20202;-73
2024/01/26 07:09:50;;;;;;;1.70;1.50;;;16.20;58.50;;;;;;5050942;28;20202;-72
2024/01/26 07:12:15;;;;;;;1.42;1.30;;;16.40;58.40;;;;;;5051775;28;20203;-72
2024/01/26 07:14:41;;;;;;;1.13;1.10;;;16.50;58.10;;;;;;5051842;28;20277;-71
2024/01/26 07:17:06;;;;;;;1.20;1.10;;;16.60;58.00;;;;;;5053954;28;20397;-71
2024/01/26 07:19:32;;;;;;;1.40;1.30;;;16.80;57.60;;;;;;5055504;28;20186;-71
2024/01/26 07:21:57;;;;;;;4.03;1.33;;;16.90;57.50;;;;;;5055630;28;20218;-72
2024/01/26 07:24:23;;;;;;;1.55;1.13;;;17.00;57.30;;;;;;5054594;28;20198;-71
2024/01/26 07:26:49;;;;;;;1.23;1.13;;;17.10;57.10;;;;;;5055834;28;20182;-71
2024/01/26 07:29:14;;;;;;;1.20;1.02;;;17.20;56.80;;;;;;5055058;28;20542;-71
2024/01/26 07:31:41;;;;;;;1.50;1.15;;;17.30;56.70;;;;;;5055239;28;20634;-70
2024/01/26 07:34:06;;;;;;;1.10;1.10;;;17.30;56.60;;;;;;5055543;28;20516;-70
2024/01/26 07:36:36;;;;;;;1.30;1.20;;;17.30;56.50;;;;;;5054480;28;20182;-70
2024/01/26 07:39:09;;;;;;;1.38;1.00;;;17.30;56.50;;;;;;5055346;28;20175;-71
2024/01/26 07:41:35;;;;;;;1.58;0.90;;;17.20;57.20;;;;;;5055181;28;20309;-72
2024/01/26 07:44:04;;;;;;;1.33;1.20;;;17.30;56.70;;;;;;5054615;28;20262;-71
2024/01/26 07:46:29;;;;;;;1.23;1.10;;;17.30;56.70;;;;;;5055033;28;20248;-71
2024/01/26 07:48:55;;;;;;;1.00;0.90;;;17.30;56.80;;;;;;5055121;28;20198;-71
2024/01/26 07:51:20;;;;;;;1.42;1.27;;;17.20;56.90;;;;;;5054186;28;20256;-72
2024/01/26 07:53:46;;;;;;;1.35;1.05;;;17.20;56.90;;;;;;5054819;28;20230;-71
2024/01/26 07:56:12;;;;;;;1.45;1.10;;;17.30;56.90;;;;;;5055302;28;20171;-71
2024/01/26 07:58:38;;;;;;;1.27;1.00;;;17.10;56.90;;;;;;5053924;28;20182;-71
2024/01/26 08:01:05;;;;;;;0.80;0.80;;;17.10;56.90;;;;;;5055121;28;20241;-72
2024/01/26 08:03:31;;;;;;;1.27;1.17;;;17.10;57.10;;;;;;5054673;28;20221;-72
2024/01/26 08:05:57;;;;;;;1.35;1.10;;;17.10;57.20;;;;;;5054115;28;20175;-72
2024/01/26 08:08:22;;;;;;;1.23;1.13;;;17.10;57.30;;;;;;5054467;28;20179;-72
2024/01/26 08:10:48;;;;;;;0.90;0.90;;;17.10;57.40;;;;;;5055032;28;20186;-72
2024/01/26 08:13:13;;;;;;;1.30;1.20;;;17.00;57.40;;;;;;5053998;28;20182;-72
2024/01/26 08:15:39;;;;;;;1.02;0.93;;;17.00;58.00;;;;;;5054460;28;20220;-70
2024/01/26 08:18:04;;;;;;;1.20;1.00;;;17.00;57.40;;;;;;5054748;28;20175;-70
2024/01/26 08:20:30;;;;;;;1.20;1.10;;;17.00;57.40;;;;;;5053647;28;20171;-70
2024/01/26 08:22:56;;;;;;;1.23;1.10;;;17.00;57.50;;;;;;5054399;28;20221;-71
2024/01/26 08:25:21;;;;;;;0.95;0.90;;;17.10;57.50;;;;;;5054392;28;20182;-70
2024/01/26 08:27:47;;;;;;;1.23;0.95;;;17.00;57.50;;;;;;5053202;28;20630;-69
2024/01/26 08:30:12;;;;;;;2.63;1.17;;;17.10;57.60;;;;;;5054555;28;20174;-70
2024/01/26 08:32:38;;;;;;;1.08;0.98;;;17.10;57.50;;;;;;5053397;28;20182;-69
2024/01/26 08:35:09;;;;;;;1.15;1.05;;;17.10;57.40;;;;;;5054227;28;20194;-71
2024/01/26 08:37:35;;;;;;;1.00;1.00;;;17.10;57.40;;;;;;5053897;28;20190;-71
2024/01/26 08:40:00;;;;;;;1.25;1.10;;;17.20;57.40;;;;;;5053530;28;20645;-70
2024/01/26 08:42:26;;;;;;;1.10;1.00;;;17.20;57.40;;;;;;5054044;28;20218;-72
2024/01/26 08:44:51;;;;;;;1.08;0.95;;;17.20;57.50;;;;;;5054115;28;20179;-72
2024/01/26 08:47:17;;;;;;;1.15;1.02;;;17.20;57.50;;;;;;5053152;28;20309;-73
2024/01/26 08:49:42;;;;;;;1.77;1.15;;;17.10;57.50;;;;;;5053945;28;20202;-70
2024/01/26 08:52:08;;;;;;;1.30;1.20;;;17.20;57.60;;;;;;5054087;28;20508;-70
2024/01/26 08:54:33;;;;;;;3.78;1.08;;;17.20;57.60;;;;;;5052839;28;20310;-70
2024/01/26 08:56:59;;;;;;;2.25;1.10;;;17.10;57.60;;;;;;5054158;28;20266;-72
2024/01/26 08:59:24;;;;;;;1.55;1.00;;;17.20;57.70;;;;;;5053845;28;20250;-72
2024/01/26 09:01:50;;;;;;;3.42;1.92;;;17.20;57.80;;;;;;5053308;28;20561;-71
2024/01/26 09:04:16;;;;;;;1.63;1.23;;;17.10;57.80;;;;;;5053695;28;20179;-72
2024/01/26 09:06:41;;;;;;;2.05;1.20;;;17.00;58.00;;;;;;5053906;28;20637;-72
2024/01/26 09:09:07;;;;;;;1.40;1.02;;;17.00;58.10;;;;;;5053188;28;20181;-73
2024/01/26 09:11:32;;;;;;;1.35;1.25;;;16.90;58.30;;;;;;5053512;28;20178;-72
2024/01/26 09:13:58;;;;;;;1.13;1.00;;;16.80;58.30;;;;;;5053633;28;20167;-71
2024/01/26 09:16:24;;;;;;;2.80;1.35;;;16.80;58.50;;;;;;5052301;28;20171;-72
2024/01/26 09:18:49;;;;;;;1.88;1.00;;;16.80;58.60;;;;;;5053459;28;20695;-73
2024/01/26 09:21:15;;;;;;;2.88;1.23;;;16.70;58.60;;;;;;5053031;28;20681;-72
2024/01/26 09:23:43;;;;;;;1.90;1.30;;;16.70;58.70;;;;;;5052606;28;20597;-71
2024/01/26 09:26:12;;;;;;;1.25;1.15;;;16.70;58.80;;;;;;5053134;28;20175;-70
2024/01/26 09:28:37;;;;;;;2.42;1.75;;;16.70;59.00;;;;;;5053062;28;20183;-71
2024/01/26 09:31:03;;;;;;;1.55;1.20;;;16.70;59.10;;;;;;5052773;28;20163;-72
2024/01/26 09:33:29;;;;;;;3.58;1.65;;;16.70;59.10;;;;;;5052976;28;20297;-71
2024/01/26 09:35:56;;;;;;;2.17;1.17;;;16.70;59.20;;;;;;5052842;28;20178;-68
2024/01/26 09:38:24;;;;;;;3.30;1.52;;;16.60;59.30;;;;;;5052365;28;20598;-73
2024/01/26 09:40:50;;;;;;;2.20;1.60;;;16.70;59.40;;;;;;5053278;28;20301;-73
2024/01/26 09:43:15;;;;;;;2.90;1.40;;;16.70;59.30;;;;;;5052270;28;20294;-74
2024/01/26 09:45:41;;;;;;;1.33;1.20;;;16.70;59.30;;;;;;5052935;28;20167;-70
2024/01/26 09:48:07;;;;;;;1.67;1.20;;;16.70;59.20;;;;;;5051791;28;20171;-70
2024/01/26 09:50:32;;;;;;;6.13;1.58;;;16.70;59.10;;;;;;5051795;28;20560;-70
2024/01/26 09:52:58;;;;;;;1.48;1.17;;;16.80;59.10;;;;;;5052833;28;20645;-71
2024/01/26 09:55:24;;;;;;;2.78;1.10;;;16.80;59.10;;;;;;5052212;28;20231;-71
2024/01/26 09:57:49;;;;;;;4.05;1.08;;;16.80;59.00;;;;;;5050440;28;20196;-72
2024/01/26 10:00:15;;;;;;;1.05;0.80;;;16.70;59.10;;;;;;5051619;28;20274;-71
2024/01/26 10:02:44;;;;;;;1.35;1.20;;;16.70;59.30;;;;;;5052347;28;20645;-72
2024/01/26 10:05:09;;;;;;;3.90;1.25;;;16.60;59.20;;;;;;5052285;28;20179;-74
2024/01/26 10:07:35;;;;;;;3.00;1.40;;;16.70;59.50;;;;;;5052440;28;20945;-74
2024/01/26 10:10:01;;;;;;;2.58;1.20;;;16.60;59.40;;;;;;5052766;28;20171;-70
2024/01/26 10:12:26;;;;;;;4.50;1.05;;;16.60;59.40;;;;;;5051601;28;20591;-72
2024/01/26 10:15:05;;;;;;;2.58;1.10;;;16.60;59.40;;;;;;5052473;28;20266;-70
2024/01/26 10:17:30;;;;;;;1.63;1.20;;;16.60;59.40;;;;;;5052109;28;20183;-69
2024/01/26 10:20:09;;;;;;;4.93;1.88;;;16.60;59.40;;;;;;5051644;28;20175;-66
2024/01/26 10:22:36;;;;;;;3.30;2.00;;;16.60;59.50;;;;;;5051962;28;20261;-67
2024/01/26 10:25:02;;;;;;;3.58;1.55;;;16.80;59.10;;;;;;5051720;28;20244;-68
2024/01/26 10:27:29;;;;;;;6.95;1.50;;;16.90;58.70;;;;;;5051972;28;20190;-68
2024/01/26 10:29:54;;;;;;;4.97;1.75;;;16.90;58.60;;;;;;5052110;28;20174;-67
2024/01/26 10:32:20;;;;;;;4.55;1.88;;;16.80;58.70;;;;;;5050891;28;20225;-67
2024/01/26 10:34:46;;;;;;;5.38;1.33;;;16.70;58.80;;;;;;5050209;28;20198;-68
2024/01/26 10:37:12;;;;;;;2.88;1.70;;;16.60;58.80;;;;;;5050877;28;20660;-68
2024/01/26 10:39:38;;;;;;;4.55;1.60;;;16.50;58.90;;;;;;5050030;28;20266;-68
2024/01/26 10:42:04;;;;;;;5.40;1.90;;;16.50;59.00;;;;;;5050813;28;20293;-68
2024/01/26 10:44:37;;;;;;;2.85;1.45;;;16.50;59.00;;;;;;5050504;28;20179;-67
2024/01/26 10:47:04;;;;;;;2.10;1.15;;;16.50;59.00;;;;;;5051334;28;20547;-68
2024/01/26 10:49:30;;;;;;;4.47;1.58;;;16.40;58.90;;;;;;5050412;28;20185;-67
2024/01/26 10:51:55;;;;;;;2.90;1.23;;;16.50;59.00;;;;;;5050642;28;20179;-67
2024/01/26 10:54:23;;;;;;;2.38;1.40;;;16.50;58.90;;;;;;5049584;28;20633;-68
2024/01/26 10:56:48;;;;;;;2.05;1.40;;;16.40;58.90;;;;;;5050665;28;20274;-68
2024/01/26 10:59:16;;;;;;;2.33;1.13;;;16.50;58.90;;;;;;5052086;28;20294;-68
2024/01/26 11:01:41;;;;;;;3.67;1.52;;;16.50;58.90;;;;;;5051254;28;20198;-68
2024/01/26 11:04:08;;;;;;;2.67;1.42;;;16.50;58.80;;;;;;5050856;28;20199;-69
2024/01/26 11:06:34;;;;;;;2.95;1.58;;;16.50;58.80;;;;;;5051661;28;20175;-68
2024/01/26 11:09:00;;;;;;;2.40;1.10;;;16.50;58.80;;;;;;5051157;28;20232;-69
2024/01/26 11:11:32;;;;;;;3.67;1.63;;;16.50;58.80;;;;;;5051472;28;20175;-68
2024/01/26 11:14:02;;;;;;;3.08;1.20;;;16.50;58.70;;;;;;5051962;28;20186;-68
2024/01/26 11:16:41;;;;;;;4.13;1.63;;;16.50;58.60;;;;;;5050820;28;20669;-68
2024/01/26 11:19:07;;;;;;;3.35;1.30;;;16.40;58.60;;;;;;5051755;28;20660;-67
2024/01/26 11:21:38;;;;;;;2.72;1.42;;;16.40;58.60;;;;;;5049636;28;20179;-67
2024/01/26 11:24:16;;;;;;;3.50;1.60;;;16.50;58.60;;;;;;5051646;28;20616;-67
2024/01/26 11:26:42;;;;;;;1.90;1.30;;;16.40;58.50;;;;;;5050743;28;20168;-67
2024/01/26 11:29:12;;;;;;;4.22;1.40;;;16.40;58.40;;;;;;5051166;28;20175;-67
2024/01/26 11:31:38;;;;;;;1.52;1.30;;;16.40;58.40;;;;;;5051250;28;20665;-67
2024/01/26 11:34:03;;;;;;;4.00;1.48;;;16.50;58.40;;;;;;5050473;28;20171;-67
2024/01/26 11:36:31;;;;;;;2.42;1.60;;;16.40;58.30;;;;;;5050535;28;20254;-67
2024/01/26 11:38:57;;;;;;;4.13;1.65;;;16.40;58.20;;;;;;5051784;28;20228;-68
2024/01/26 11:41:24;;;;;;;3.28;1.70;;;16.40;58.20;;;;;;5049896;28;20262;-68
2024/01/26 11:43:50;;;;;;;2.45;1.42;;;16.40;58.30;;;;;;5049376;28;20697;-67
2024/01/26 11:46:15;;;;;;;3.88;1.58;;;16.40;58.30;;;;;;5050328;28;20210;-66
2024/01/26 11:48:41;;;;;;;3.78;1.25;;;16.40;58.20;;;;;;5051171;28;20175;-66
2024/01/26 11:51:06;;;;;;;3.67;1.50;;;16.30;58.20;;;;;;5050760;28;20630;-67
2024/01/26 11:53:32;;;;;;;2.65;1.40;;;16.30;58.20;;;;;;5050936;28;20641;-66
2024/01/26 11:55:59;;;;;;;2.45;1.30;;;16.30;58.20;;;;;;5051391;28;20190;-67
2024/01/26 11:58:24;;;;;;;1.92;1.10;;;16.40;58.10;;;;;;5049289;28;20183;-67
2024/01/26 12:00:50;;;;;;;1.50;1.17;;;16.40;58.00;;;;;;5050160;28;20244;-67
2024/01/26 12:03:16;;;;;;;3.50;1.50;;;16.30;58.00;;;;;;5054030;28;20206;-68
2024/01/26 12:05:42;;;;;;;2.55;1.27;;;16.30;57.90;;;;;;5052929;28;20638;-68
2024/01/26 12:08:08;;;;;;;5.53;1.50;;;16.30;57.80;;;;;;5055032;28;20175;-67
2024/01/26 12:10:34;;;;;;;3.88;1.67;;;16.30;57.70;;;;;;5052746;28;20178;-68
2024/01/26 12:12:59;;;;;;;4.70;1.92;;;16.30;57.70;;;;;;5054936;28;20182;-67
2024/01/26 12:15:29;;;;;;;5.30;1.77;;;16.30;57.70;;;;;;5053319;28;20171;-67
2024/01/26 12:17:58;;;;;;;4.05;1.30;;;16.30;57.70;;;;;;5054034;28;20175;-67
2024/01/26 12:20:23;;;;;;;3.83;1.63;;;16.30;57.80;;;;;;5054363;28;20725;-67
2024/01/26 12:22:50;;;;;;;1.90;1.23;;;16.30;57.70;;;;;;5054540;28;20729;-68
2024/01/26 12:25:16;;;;;;;2.25;1.27;;;16.30;57.70;;;;;;5053815;28;20198;-68
2024/01/26 12:27:42;;;;;;;4.75;1.45;;;16.30;57.60;;;;;;5054575;28;20519;-67
2024/01/26 12:30:10;;;;;;;2.83;1.30;;;16.30;57.60;;;;;;5054361;28;20569;-67
2024/01/26 12:32:37;;;;;;;4.78;1.75;;;16.20;57.60;;;;;;5052208;28;20637;-66
2024/01/26 12:35:03;;;;;;;3.60;1.48;;;16.30;57.60;;;;;;5054346;28;20179;-67
2024/01/26 12:37:29;;;;;;;2.58;1.23;;;16.20;57.60;;;;;;5054213;28;20262;-68
2024/01/26 12:39:54;;;;;;;4.10;1.70;;;16.20;57.60;;;;;;5053766;28;20306;-67
2024/01/26 12:42:20;;;;;;;4.30;1.45;;;16.20;57.60;;;;;;5053978;28;20256;-68